Los Mochis International Airport

Current Flights

Info
Name: Los Mochis International Airport
Identifier:  LMM/MMLM
Local Time:  27. Jun 06:04
City
Los Mochis
  Mexico

Flights per Day
10 flights
Distance: 964km (599mi)
Punctuality
86% (1 flights per day delayed)
Delay Average: 3 minutes
Current Weather
 29 C (Humidity: 58%)
  5kt (9km/h / 5mph) from 220°
  Few clouds at 4,500 feet (1,371 meter)
  16km (10 mi.)
 METAR MMLM 270340Z 22005KT 10SM FEW045 29/20 A2988 RMK 8/500

Current Delays

Departures
N/A
Arrivals
N/A

Destinations

Top Destinations
Airport Flights
per week
Seats
per week
  Mexico City (MEX) 38 3,502 5 500
  Tijuana (TIJ) 14 2,210 2 315
  Guadalajara (GDL) 4 696 0 99
  Monterrey (MTY) 3 173 0 24
  Tucson (TUS) 0 - 0 0
  Los Angeles (LAX) 0 - 0 0
  Midland (MDD) 0 - 0 0
  Denton (QQD) 0 - 0 0
  Scottsdale (SCF) 0 - 0 0

Airlines & Planes

Top Airlines
Airline Flights
per Day
Seats
per Day
  Aeroméxico Connect 4 369
  Volaris 3 546
  Aeroland 0 24
  Viva Aerobus 0 -
  National Airlines 0 -
Volaris Costa Rica 0 -
  Nolinor Aviation 0 -
  Flybe Nordic 0 -
Top Plane Types
Model Flights Seats
Embraer E190 4.0/day 356/day 356.73333333333335
Airbus A320 2.9/day 490/day 490.26666666666665
Airbus A320 Neo 1.0/day 62/day 62
Embraer E170 0.6/day 12/day 12.4
Airbus A319 0.1/day 19/day 19.2
Boeing B737-300 0.1/day - 0
Beech B200 Super King Air 0.1/day - 0